sensor_id;sensor_type;location;lat;lon;timestamp;P1;durP1;ratioP1;P2;durP2;ratioP2
67274;SDS011;55463;52.324;5.122;2023-06-26T00:01:40;7.60;;;5.53;;
67274;SDS011;55463;52.324;5.122;2023-06-26T00:04:07;8.68;;;5.60;;
67274;SDS011;55463;52.324;5.122;2023-06-26T00:06:33;6.68;;;5.55;;
67274;SDS011;55463;52.324;5.122;2023-06-26T00:08:58;8.13;;;5.25;;
67274;SDS011;55463;52.324;5.122;2023-06-26T00:11:23;10.48;;;4.93;;
67274;SDS011;55463;52.324;5.122;2023-06-26T00:13:49;8.48;;;5.32;;
67274;SDS011;55463;52.324;5.122;2023-06-26T00:16:14;6.25;;;5.28;;
67274;SDS011;55463;52.324;5.122;2023-06-26T00:18:40;7.88;;;5.97;;
67274;SDS011;55463;52.324;5.122;2023-06-26T00:21:05;8.52;;;5.60;;
67274;SDS011;55463;52.324;5.122;2023-06-26T00:23:31;10.02;;;5.90;;
67274;SDS011;55463;52.324;5.122;2023-06-26T00:25:58;6.78;;;5.47;;
67274;SDS011;55463;52.324;5.122;2023-06-26T00:28:23;7.60;;;5.60;;
67274;SDS011;55463;52.324;5.122;2023-06-26T00:30:48;8.27;;;5.90;;
67274;SDS011;55463;52.324;5.122;2023-06-26T00:33:14;8.82;;;5.47;;
67274;SDS011;55463;52.324;5.122;2023-06-26T00:35:40;6.28;;;5.63;;
67274;SDS011;55463;52.324;5.122;2023-06-26T00:38:05;6.80;;;5.45;;
67274;SDS011;55463;52.324;5.122;2023-06-26T00:40:31;8.38;;;6.25;;
67274;SDS011;55463;52.324;5.122;2023-06-26T00:42:56;8.35;;;5.50;;
67274;SDS011;55463;52.324;5.122;2023-06-26T00:45:22;10.25;;;5.63;;
67274;SDS011;55463;52.324;5.122;2023-06-26T00:47:47;8.18;;;5.85;;
67274;SDS011;55463;52.324;5.122;2023-06-26T00:50:13;9.45;;;6.25;;
67274;SDS011;55463;52.324;5.122;2023-06-26T00:52:40;7.75;;;6.18;;
67274;SDS011;55463;52.324;5.122;2023-06-26T00:55:06;10.27;;;6.10;;
67274;SDS011;55463;52.324;5.122;2023-06-26T00:57:32;7.35;;;6.05;;
67274;SDS011;55463;52.324;5.122;2023-06-26T00:59:58;11.48;;;7.05;;
67274;SDS011;55463;52.324;5.122;2023-06-26T01:02:25;9.20;;;6.25;;
67274;SDS011;55463;52.324;5.122;2023-06-26T01:04:58;14.48;;;6.78;;
67274;SDS011;55463;52.324;5.122;2023-06-26T01:07:25;7.93;;;5.45;;
67274;SDS011;55463;52.324;5.122;2023-06-26T01:09:51;6.20;;;5.07;;
67274;SDS011;55463;52.324;5.122;2023-06-26T01:12:16;7.95;;;5.78;;
67274;SDS011;55463;52.324;5.122;2023-06-26T01:14:42;7.00;;;4.78;;
67274;SDS011;55463;52.324;5.122;2023-06-26T01:17:08;9.10;;;5.00;;
67274;SDS011;55463;52.324;5.122;2023-06-26T01:19:38;6.30;;;4.82;;
67274;SDS011;55463;52.324;5.122;2023-06-26T01:22:16;6.85;;;4.53;;
67274;SDS011;55463;52.324;5.122;2023-06-26T01:29:58;12.90;;;4.63;;
67274;SDS011;55463;52.324;5.122;2023-06-26T01:32:26;7.38;;;4.13;;
67274;SDS011;55463;52.324;5.122;2023-06-26T01:34:54;7.10;;;4.55;;
67274;SDS011;55463;52.324;5.122;2023-06-26T01:37:19;10.63;;;4.50;;
67274;SDS011;55463;52.324;5.122;2023-06-26T01:39:44;8.38;;;4.47;;
67274;SDS011;55463;52.324;5.122;2023-06-26T01:42:10;11.25;;;4.65;;
67274;SDS011;55463;52.324;5.122;2023-06-26T01:44:37;11.80;;;5.07;;
67274;SDS011;55463;52.324;5.122;2023-06-26T01:47:08;11.80;;;4.80;;
67274;SDS011;55463;52.324;5.122;2023-06-26T01:54:55;10.77;;;4.55;;
67274;SDS011;55463;52.324;5.122;2023-06-26T01:57:35;10.70;;;5.07;;
67274;SDS011;55463;52.324;5.122;2023-06-26T02:00:02;12.88;;;5.28;;
67274;SDS011;55463;52.324;5.122;2023-06-26T02:02:29;8.60;;;4.45;;
67274;SDS011;55463;52.324;5.122;2023-06-26T02:04:55;10.73;;;4.65;;
67274;SDS011;55463;52.324;5.122;2023-06-26T02:07:20;11.32;;;4.68;;
67274;SDS011;55463;52.324;5.122;2023-06-26T02:09:45;11.00;;;4.60;;
67274;SDS011;55463;52.324;5.122;2023-06-26T02:12:11;8.55;;;4.82;;
67274;SDS011;55463;52.324;5.122;2023-06-26T02:14:36;12.35;;;4.75;;
67274;SDS011;55463;52.324;5.122;2023-06-26T02:17:02;12.73;;;5.18;;
67274;SDS011;55463;52.324;5.122;2023-06-26T02:19:27;14.90;;;4.80;;
67274;SDS011;55463;52.324;5.122;2023-06-26T02:21:53;15.45;;;4.80;;
67274;SDS011;55463;52.324;5.122;2023-06-26T02:24:19;14.90;;;4.72;;
67274;SDS011;55463;52.324;5.122;2023-06-26T02:26:44;10.20;;;4.82;;
67274;SDS011;55463;52.324;5.122;2023-06-26T02:29:10;13.23;;;5.05;;
67274;SDS011;55463;52.324;5.122;2023-06-26T02:31:36;11.95;;;5.35;;
67274;SDS011;55463;52.324;5.122;2023-06-26T02:34:02;11.43;;;4.88;;
67274;SDS011;55463;52.324;5.122;2023-06-26T02:36:27;12.43;;;4.90;;
67274;SDS011;55463;52.324;5.122;2023-06-26T02:38:53;14.55;;;5.40;;
67274;SDS011;55463;52.324;5.122;2023-06-26T02:41:18;13.95;;;4.75;;
67274;SDS011;55463;52.324;5.122;2023-06-26T02:43:43;10.70;;;4.97;;
67274;SDS011;55463;52.324;5.122;2023-06-26T02:46:09;13.20;;;5.20;;
67274;SDS011;55463;52.324;5.122;2023-06-26T02:48:34;13.32;;;5.97;;
67274;SDS011;55463;52.324;5.122;2023-06-26T02:51:00;16.10;;;5.30;;
67274;SDS011;55463;52.324;5.122;2023-06-26T02:53:25;14.48;;;5.30;;
67274;SDS011;55463;52.324;5.122;2023-06-26T02:55:50;15.02;;;5.13;;
67274;SDS011;55463;52.324;5.122;2023-06-26T02:58:16;17.92;;;5.22;;
67274;SDS011;55463;52.324;5.122;2023-06-26T03:00:41;16.73;;;5.55;;
67274;SDS011;55463;52.324;5.122;2023-06-26T03:03:08;13.85;;;5.28;;
67274;SDS011;55463;52.324;5.122;2023-06-26T03:05:34;16.55;;;5.07;;
67274;SDS011;55463;52.324;5.122;2023-06-26T03:07:59;18.70;;;5.07;;
67274;SDS011;55463;52.324;5.122;2023-06-26T03:10:24;20.55;;;5.25;;
67274;SDS011;55463;52.324;5.122;2023-06-26T03:12:50;16.83;;;5.70;;
67274;SDS011;55463;52.324;5.122;2023-06-26T03:15:15;21.77;;;5.40;;
67274;SDS011;55463;52.324;5.122;2023-06-26T03:17:41;16.38;;;5.32;;
67274;SDS011;55463;52.324;5.122;2023-06-26T03:20:06;18.63;;;5.72;;
67274;SDS011;55463;52.324;5.122;2023-06-26T03:22:33;12.73;;;5.20;;
67274;SDS011;55463;52.324;5.122;2023-06-26T03:24:59;16.88;;;5.47;;
67274;SDS011;55463;52.324;5.122;2023-06-26T03:27:24;15.85;;;5.07;;
67274;SDS011;55463;52.324;5.122;2023-06-26T03:29:51;16.58;;;5.20;;
67274;SDS011;55463;52.324;5.122;2023-06-26T03:32:17;15.10;;;5.35;;
67274;SDS011;55463;52.324;5.122;2023-06-26T03:34:43;14.23;;;5.10;;
67274;SDS011;55463;52.324;5.122;2023-06-26T03:37:08;18.85;;;5.60;;
67274;SDS011;55463;52.324;5.122;2023-06-26T03:39:33;15.82;;;4.97;;
67274;SDS011;55463;52.324;5.122;2023-06-26T03:41:59;18.17;;;5.00;;
67274;SDS011;55463;52.324;5.122;2023-06-26T03:44:26;13.77;;;5.00;;
67274;SDS011;55463;52.324;5.122;2023-06-26T03:46:51;15.95;;;4.65;;
67274;SDS011;55463;52.324;5.122;2023-06-26T03:49:17;16.50;;;5.03;;
67274;SDS011;55463;52.324;5.122;2023-06-26T03:51:43;20.65;;;5.40;;
67274;SDS011;55463;52.324;5.122;2023-06-26T03:54:08;17.02;;;5.60;;
67274;SDS011;55463;52.324;5.122;2023-06-26T03:56:34;13.68;;;5.28;;
67274;SDS011;55463;52.324;5.122;2023-06-26T03:58:59;15.23;;;5.03;;
67274;SDS011;55463;52.324;5.122;2023-06-26T04:01:25;15.63;;;4.65;;
67274;SDS011;55463;52.324;5.122;2023-06-26T04:03:50;18.48;;;5.03;;
67274;SDS011;55463;52.324;5.122;2023-06-26T04:06:16;15.15;;;5.00;;
67274;SDS011;55463;52.324;5.122;2023-06-26T04:08:41;13.32;;;4.75;;
67274;SDS011;55463;52.324;5.122;2023-06-26T04:11:07;15.05;;;5.35;;
67274;SDS011;55463;52.324;5.122;2023-06-26T04:13:32;12.02;;;4.60;;
67274;SDS011;55463;52.324;5.122;2023-06-26T04:15:57;16.02;;;4.30;;
67274;SDS011;55463;52.324;5.122;2023-06-26T04:18:23;15.18;;;4.80;;
67274;SDS011;55463;52.324;5.122;2023-06-26T04:23:37;16.65;;;5.13;;
67274;SDS011;55463;52.324;5.122;2023-06-26T04:26:03;16.02;;;4.38;;
67274;SDS011;55463;52.324;5.122;2023-06-26T04:28:30;13.45;;;4.25;;
67274;SDS011;55463;52.324;5.122;2023-06-26T04:30:57;11.55;;;4.18;;
67274;SDS011;55463;52.324;5.122;2023-06-26T04:33:22;9.63;;;3.90;;
67274;SDS011;55463;52.324;5.122;2023-06-26T04:35:48;15.43;;;4.15;;
67274;SDS011;55463;52.324;5.122;2023-06-26T04:38:14;7.68;;;3.70;;
67274;SDS011;55463;52.324;5.122;2023-06-26T04:40:40;9.13;;;3.67;;
67274;SDS011;55463;52.324;5.122;2023-06-26T04:43:06;8.90;;;3.30;;
67274;SDS011;55463;52.324;5.122;2023-06-26T04:45:32;7.40;;;2.80;;
67274;SDS011;55463;52.324;5.122;2023-06-26T04:47:57;7.60;;;2.72;;
67274;SDS011;55463;52.324;5.122;2023-06-26T04:50:23;3.55;;;2.40;;
67274;SDS011;55463;52.324;5.122;2023-06-26T04:52:48;7.68;;;2.70;;
67274;SDS011;55463;52.324;5.122;2023-06-26T04:55:14;3.75;;;2.33;;
67274;SDS011;55463;52.324;5.122;2023-06-26T04:57:39;6.40;;;2.45;;
67274;SDS011;55463;52.324;5.122;2023-06-26T05:00:05;14.23;;;2.55;;
67274;SDS011;55463;52.324;5.122;2023-06-26T05:02:35;5.80;;;2.50;;
67274;SDS011;55463;52.324;5.122;2023-06-26T05:05:00;6.47;;;2.55;;
67274;SDS011;55463;52.324;5.122;2023-06-26T05:07:26;4.97;;;2.40;;
67274;SDS011;55463;52.324;5.122;2023-06-26T05:09:51;3.80;;;2.50;;
67274;SDS011;55463;52.324;5.122;2023-06-26T05:12:17;4.00;;;2.25;;
67274;SDS011;55463;52.324;5.122;2023-06-26T05:14:42;3.90;;;2.58;;
67274;SDS011;55463;52.324;5.122;2023-06-26T05:17:08;6.47;;;2.10;;
67274;SDS011;55463;52.324;5.122;2023-06-26T05:19:34;3.53;;;2.35;;
67274;SDS011;55463;52.324;5.122;2023-06-26T05:22:00;8.32;;;2.50;;
67274;SDS011;55463;52.324;5.122;2023-06-26T05:24:29;4.93;;;2.67;;
67274;SDS011;55463;52.324;5.122;2023-06-26T05:26:55;5.40;;;2.50;;
67274;SDS011;55463;52.324;5.122;2023-06-26T05:29:21;6.47;;;2.40;;
67274;SDS011;55463;52.324;5.122;2023-06-26T05:31:47;7.35;;;2.63;;
67274;SDS011;55463;52.324;5.122;2023-06-26T05:34:13;7.13;;;2.65;;
67274;SDS011;55463;52.324;5.122;2023-06-26T05:36:41;5.32;;;2.78;;
67274;SDS011;55463;52.324;5.122;2023-06-26T05:39:07;9.80;;;2.42;;
67274;SDS011;55463;52.324;5.122;2023-06-26T05:41:32;5.18;;;2.72;;
67274;SDS011;55463;52.324;5.122;2023-06-26T05:43:58;6.53;;;2.72;;
67274;SDS011;55463;52.324;5.122;2023-06-26T05:46:23;9.80;;;2.90;;
67274;SDS011;55463;52.324;5.122;2023-06-26T05:48:49;9.40;;;3.20;;
67274;SDS011;55463;52.324;5.122;2023-06-26T05:51:14;5.20;;;3.08;;
67274;SDS011;55463;52.324;5.122;2023-06-26T05:53:40;7.78;;;2.88;;
67274;SDS011;55463;52.324;5.122;2023-06-26T05:56:05;8.45;;;2.72;;
67274;SDS011;55463;52.324;5.122;2023-06-26T05:58:31;5.05;;;2.80;;
67274;SDS011;55463;52.324;5.122;2023-06-26T06:00:58;5.93;;;2.70;;
67274;SDS011;55463;52.324;5.122;2023-06-26T06:03:23;6.40;;;2.50;;
67274;SDS011;55463;52.324;5.122;2023-06-26T06:05:49;8.40;;;2.88;;
67274;SDS011;55463;52.324;5.122;2023-06-26T06:08:14;8.95;;;2.75;;
67274;SDS011;55463;52.324;5.122;2023-06-26T06:10:40;3.70;;;2.70;;
67274;SDS011;55463;52.324;5.122;2023-06-26T06:13:05;8.90;;;2.80;;
67274;SDS011;55463;52.324;5.122;2023-06-26T06:15:30;6.03;;;2.75;;
67274;SDS011;55463;52.324;5.122;2023-06-26T06:17:56;5.03;;;2.65;;
67274;SDS011;55463;52.324;5.122;2023-06-26T06:20:21;6.75;;;3.03;;
67274;SDS011;55463;52.324;5.122;2023-06-26T06:22:46;5.25;;;2.67;;
67274;SDS011;55463;52.324;5.122;2023-06-26T06:25:13;4.90;;;2.55;;
67274;SDS011;55463;52.324;5.122;2023-06-26T06:27:39;5.93;;;2.88;;
67274;SDS011;55463;52.324;5.122;2023-06-26T06:30:05;5.70;;;2.50;;
67274;SDS011;55463;52.324;5.122;2023-06-26T06:32:30;6.25;;;2.97;;
67274;SDS011;55463;52.324;5.122;2023-06-26T06:34:56;6.18;;;2.80;;
67274;SDS011;55463;52.324;5.122;2023-06-26T06:37:22;4.03;;;2.53;;
67274;SDS011;55463;52.324;5.122;2023-06-26T06:39:47;9.93;;;2.70;;
67274;SDS011;55463;52.324;5.122;2023-06-26T06:42:13;5.82;;;2.67;;
67274;SDS011;55463;52.324;5.122;2023-06-26T06:44:38;6.75;;;2.70;;
67274;SDS011;55463;52.324;5.122;2023-06-26T06:47:04;10.63;;;2.90;;
67274;SDS011;55463;52.324;5.122;2023-06-26T06:49:29;7.53;;;2.85;;
67274;SDS011;55463;52.324;5.122;2023-06-26T06:51:54;6.57;;;2.30;;
67274;SDS011;55463;52.324;5.122;2023-06-26T06:54:20;8.98;;;2.75;;
67274;SDS011;55463;52.324;5.122;2023-06-26T06:56:46;7.45;;;2.80;;
67274;SDS011;55463;52.324;5.122;2023-06-26T06:59:11;8.05;;;2.97;;
67274;SDS011;55463;52.324;5.122;2023-06-26T07:01:37;7.07;;;2.30;;
67274;SDS011;55463;52.324;5.122;2023-06-26T07:04:02;4.32;;;2.95;;
67274;SDS011;55463;52.324;5.122;2023-06-26T07:06:29;3.63;;;2.58;;
67274;SDS011;55463;52.324;5.122;2023-06-26T07:08:54;5.25;;;2.55;;
67274;SDS011;55463;52.324;5.122;2023-06-26T07:11:20;8.07;;;2.53;;
67274;SDS011;55463;52.324;5.122;2023-06-26T07:13:45;6.93;;;2.63;;
67274;SDS011;55463;52.324;5.122;2023-06-26T07:16:11;4.90;;;2.50;;
67274;SDS011;55463;52.324;5.122;2023-06-26T07:18:37;5.38;;;2.72;;
67274;SDS011;55463;52.324;5.122;2023-06-26T07:21:03;5.25;;;2.70;;
67274;SDS011;55463;52.324;5.122;2023-06-26T07:23:28;7.65;;;3.00;;
67274;SDS011;55463;52.324;5.122;2023-06-26T07:25:54;6.25;;;2.90;;
67274;SDS011;55463;52.324;5.122;2023-06-26T07:28:19;7.85;;;3.17;;
67274;SDS011;55463;52.324;5.122;2023-06-26T07:30:45;10.93;;;3.10;;
67274;SDS011;55463;52.324;5.122;2023-06-26T07:33:10;11.52;;;2.97;;
67274;SDS011;55463;52.324;5.122;2023-06-26T07:35:36;8.65;;;3.03;;
67274;SDS011;55463;52.324;5.122;2023-06-26T07:38:01;5.82;;;2.95;;
67274;SDS011;55463;52.324;5.122;2023-06-26T07:40:27;12.32;;;3.45;;
67274;SDS011;55463;52.324;5.122;2023-06-26T07:42:52;9.55;;;2.80;;
67274;SDS011;55463;52.324;5.122;2023-06-26T07:45:19;6.53;;;2.70;;
67274;SDS011;55463;52.324;5.122;2023-06-26T07:47:44;11.95;;;2.72;;
67274;SDS011;55463;52.324;5.122;2023-06-26T07:50:10;7.35;;;2.53;;
67274;SDS011;55463;52.324;5.122;2023-06-26T07:52:36;5.63;;;2.72;;
67274;SDS011;55463;52.324;5.122;2023-06-26T07:55:01;7.65;;;2.40;;
67274;SDS011;55463;52.324;5.122;2023-06-26T07:57:28;13.10;;;2.45;;
67274;SDS011;55463;52.324;5.122;2023-06-26T07:59:54;5.85;;;2.42;;
67274;SDS011;55463;52.324;5.122;2023-06-26T08:02:21;6.13;;;2.40;;
67274;SDS011;55463;52.324;5.122;2023-06-26T08:04:47;7.40;;;2.63;;
67274;SDS011;55463;52.324;5.122;2023-06-26T08:07:12;7.78;;;2.40;;
67274;SDS011;55463;52.324;5.122;2023-06-26T08:09:38;7.45;;;2.42;;
67274;SDS011;55463;52.324;5.122;2023-06-26T08:12:04;4.05;;;2.00;;
67274;SDS011;55463;52.324;5.122;2023-06-26T08:14:30;7.60;;;2.60;;
67274;SDS011;55463;52.324;5.122;2023-06-26T08:16:56;8.88;;;2.72;;
67274;SDS011;55463;52.324;5.122;2023-06-26T08:19:22;7.75;;;2.85;;
67274;SDS011;55463;52.324;5.122;2023-06-26T08:21:47;10.25;;;2.42;;
67274;SDS011;55463;52.324;5.122;2023-06-26T08:24:13;8.85;;;2.30;;
67274;SDS011;55463;52.324;5.122;2023-06-26T08:26:42;8.75;;;2.80;;
67274;SDS011;55463;52.324;5.122;2023-06-26T08:29:07;8.60;;;2.45;;
67274;SDS011;55463;52.324;5.122;2023-06-26T08:31:37;6.28;;;2.47;;
67274;SDS011;55463;52.324;5.122;2023-06-26T08:34:03;10.90;;;2.55;;
67274;SDS011;55463;52.324;5.122;2023-06-26T08:36:30;11.90;;;2.72;;
67274;SDS011;55463;52.324;5.122;2023-06-26T08:38:56;7.13;;;2.10;;
67274;SDS011;55463;52.324;5.122;2023-06-26T08:41:22;7.60;;;2.28;;
67274;SDS011;55463;52.324;5.122;2023-06-26T08:43:47;8.55;;;3.22;;
67274;SDS011;55463;52.324;5.122;2023-06-26T08:46:16;12.07;;;2.40;;
67274;SDS011;55463;52.324;5.122;2023-06-26T08:48:41;5.55;;;2.13;;
67274;SDS011;55463;52.324;5.122;2023-06-26T08:51:25;8.80;;;2.55;;
67274;SDS011;55463;52.324;5.122;2023-06-26T08:54:00;8.52;;;2.35;;
67274;SDS011;55463;52.324;5.122;2023-06-26T08:56:28;8.10;;;2.50;;
67274;SDS011;55463;52.324;5.122;2023-06-26T08:58:56;6.55;;;2.00;;
67274;SDS011;55463;52.324;5.122;2023-06-26T09:01:22;5.70;;;2.65;;
67274;SDS011;55463;52.324;5.122;2023-06-26T09:03:50;6.00;;;2.03;;
67274;SDS011;55463;52.324;5.122;2023-06-26T09:06:16;8.60;;;2.67;;
67274;SDS011;55463;52.324;5.122;2023-06-26T09:08:43;8.00;;;2.63;;
67274;SDS011;55463;52.324;5.122;2023-06-26T09:11:08;7.80;;;2.60;;
67274;SDS011;55463;52.324;5.122;2023-06-26T09:13:34;4.88;;;2.25;;
67274;SDS011;55463;52.324;5.122;2023-06-26T09:16:03;13.13;;;2.67;;
67274;SDS011;55463;52.324;5.122;2023-06-26T09:18:32;4.97;;;2.42;;
67274;SDS011;55463;52.324;5.122;2023-06-26T09:20:57;6.25;;;2.45;;
67274;SDS011;55463;52.324;5.122;2023-06-26T09:23:23;6.30;;;2.22;;
67274;SDS011;55463;52.324;5.122;2023-06-26T09:25:48;8.73;;;2.17;;
67274;SDS011;55463;52.324;5.122;2023-06-26T09:28:16;5.88;;;2.20;;
67274;SDS011;55463;52.324;5.122;2023-06-26T09:30:42;6.82;;;2.10;;
67274;SDS011;55463;52.324;5.122;2023-06-26T09:33:14;8.27;;;2.03;;
67274;SDS011;55463;52.324;5.122;2023-06-26T09:38:07;5.57;;;2.22;;
67274;SDS011;55463;52.324;5.122;2023-06-26T09:40:32;7.55;;;2.55;;
67274;SDS011;55463;52.324;5.122;2023-06-26T09:43:03;5.82;;;2.22;;
67274;SDS011;55463;52.324;5.122;2023-06-26T09:45:32;4.00;;;1.70;;
67274;SDS011;55463;52.324;5.122;2023-06-26T09:48:01;3.88;;;1.90;;
67274;SDS011;55463;52.324;5.122;2023-06-26T09:50:32;4.95;;;1.77;;
67274;SDS011;55463;52.324;5.122;2023-06-26T09:53:12;9.02;;;2.22;;
67274;SDS011;55463;52.324;5.122;2023-06-26T09:55:38;5.55;;;1.35;;
67274;SDS011;55463;52.324;5.122;2023-06-26T09:58:05;3.60;;;1.70;;
67274;SDS011;55463;52.324;5.122;2023-06-26T10:00:31;9.07;;;1.80;;
67274;SDS011;55463;52.324;5.122;2023-06-26T10:03:00;7.63;;;1.73;;
67274;SDS011;55463;52.324;5.122;2023-06-26T10:05:26;5.22;;;1.60;;
67274;SDS011;55463;52.324;5.122;2023-06-26T10:07:52;5.97;;;1.70;;
67274;SDS011;55463;52.324;5.122;2023-06-26T10:10:18;4.95;;;1.65;;
67274;SDS011;55463;52.324;5.122;2023-06-26T10:12:45;7.30;;;1.90;;
67274;SDS011;55463;52.324;5.122;2023-06-26T10:15:14;9.03;;;1.70;;
67274;SDS011;55463;52.324;5.122;2023-06-26T10:17:42;6.50;;;1.90;;
67274;SDS011;55463;52.324;5.122;2023-06-26T10:20:10;5.35;;;1.80;;
67274;SDS011;55463;52.324;5.122;2023-06-26T10:22:46;3.97;;;1.70;;
67274;SDS011;55463;52.324;5.122;2023-06-26T10:25:14;6.47;;;1.73;;
67274;SDS011;55463;52.324;5.122;2023-06-26T10:27:45;5.40;;;1.63;;
67274;SDS011;55463;52.324;5.122;2023-06-26T10:30:18;4.47;;;1.70;;
67274;SDS011;55463;52.324;5.122;2023-06-26T10:32:53;5.30;;;1.70;;
67274;SDS011;55463;52.324;5.122;2023-06-26T10:35:19;4.03;;;1.85;;
67274;SDS011;55463;52.324;5.122;2023-06-26T10:37:49;5.70;;;1.90;;
67274;SDS011;55463;52.324;5.122;2023-06-26T10:40:25;4.60;;;1.95;;
67274;SDS011;55463;52.324;5.122;2023-06-26T10:42:52;3.78;;;1.60;;
67274;SDS011;55463;52.324;5.122;2023-06-26T10:45:32;6.03;;;1.92;;
67274;SDS011;55463;52.324;5.122;2023-06-26T10:47:59;3.72;;;1.75;;
67274;SDS011;55463;52.324;5.122;2023-06-26T10:55:56;3.53;;;1.75;;
67274;SDS011;55463;52.324;5.122;2023-06-26T11:03:39;5.50;;;1.60;;
67274;SDS011;55463;52.324;5.122;2023-06-26T11:06:11;4.15;;;1.70;;
67274;SDS011;55463;52.324;5.122;2023-06-26T11:09:00;6.47;;;1.77;;
67274;SDS011;55463;52.324;5.122;2023-06-26T11:14:20;7.38;;;1.83;;
67274;SDS011;55463;52.324;5.122;2023-06-26T11:16:47;5.07;;;1.70;;
67274;SDS011;55463;52.324;5.122;2023-06-26T11:19:14;3.22;;;1.60;;
67274;SDS011;55463;52.324;5.122;2023-06-26T11:21:41;4.63;;;1.80;;
67274;SDS011;55463;52.324;5.122;2023-06-26T11:24:07;2.70;;;1.42;;
67274;SDS011;55463;52.324;5.122;2023-06-26T11:26:40;10.13;;;1.83;;
67274;SDS011;55463;52.324;5.122;2023-06-26T11:29:06;3.30;;;1.42;;
67274;SDS011;55463;52.324;5.122;2023-06-26T11:31:32;8.57;;;2.08;;
67274;SDS011;55463;52.324;5.122;2023-06-26T11:34:00;2.75;;;1.83;;
67274;SDS011;55463;52.324;5.122;2023-06-26T11:36:29;2.53;;;1.50;;
67274;SDS011;55463;52.324;5.122;2023-06-26T11:38:55;5.15;;;1.60;;
67274;SDS011;55463;52.324;5.122;2023-06-26T11:41:21;3.70;;;1.77;;
67274;SDS011;55463;52.324;5.122;2023-06-26T11:43:47;5.90;;;1.60;;
67274;SDS011;55463;52.324;5.122;2023-06-26T11:46:12;5.28;;;1.90;;
67274;SDS011;55463;52.324;5.122;2023-06-26T11:48:41;6.07;;;2.05;;
67274;SDS011;55463;52.324;5.122;2023-06-26T11:51:07;6.47;;;2.33;;
67274;SDS011;55463;52.324;5.122;2023-06-26T11:53:32;5.78;;;1.70;;
67274;SDS011;55463;52.324;5.122;2023-06-26T11:56:08;7.93;;;2.25;;
67274;SDS011;55463;52.324;5.122;2023-06-26T12:01:24;5.65;;;1.70;;
67274;SDS011;55463;52.324;5.122;2023-06-26T12:03:50;5.40;;;1.60;;
67274;SDS011;55463;52.324;5.122;2023-06-26T12:06:16;3.35;;;1.77;;
67274;SDS011;55463;52.324;5.122;2023-06-26T12:08:42;5.05;;;1.98;;
67274;SDS011;55463;52.324;5.122;2023-06-26T12:11:08;5.60;;;1.63;;
67274;SDS011;55463;52.324;5.122;2023-06-26T12:13:34;3.17;;;1.70;;
67274;SDS011;55463;52.324;5.122;2023-06-26T12:15:59;5.30;;;1.65;;
67274;SDS011;55463;52.324;5.122;2023-06-26T12:18:25;7.03;;;2.20;;
67274;SDS011;55463;52.324;5.122;2023-06-26T12:20:51;6.68;;;1.88;;
67274;SDS011;55463;52.324;5.122;2023-06-26T12:23:17;6.50;;;1.33;;
67274;SDS011;55463;52.324;5.122;2023-06-26T12:25:43;5.05;;;1.40;;
67274;SDS011;55463;52.324;5.122;2023-06-26T12:28:18;4.18;;;1.60;;
67274;SDS011;55463;52.324;5.122;2023-06-26T12:30:47;5.35;;;1.67;;
67274;SDS011;55463;52.324;5.122;2023-06-26T12:33:32;7.78;;;2.03;;
67274;SDS011;55463;52.324;5.122;2023-06-26T12:35:58;3.75;;;1.42;;
67274;SDS011;55463;52.324;5.122;2023-06-26T12:38:23;5.00;;;1.70;;
67274;SDS011;55463;52.324;5.122;2023-06-26T12:40:48;8.65;;;2.00;;
67274;SDS011;55463;52.324;5.122;2023-06-26T12:43:23;2.97;;;1.83;;
67274;SDS011;55463;52.324;5.122;2023-06-26T12:45:53;5.75;;;2.00;;
67274;SDS011;55463;52.324;5.122;2023-06-26T12:48:20;5.90;;;1.70;;
67274;SDS011;55463;52.324;5.122;2023-06-26T12:50:45;4.10;;;1.63;;
67274;SDS011;55463;52.324;5.122;2023-06-26T12:53:11;10.27;;;1.60;;
67274;SDS011;55463;52.324;5.122;2023-06-26T12:55:37;9.10;;;1.52;;
67274;SDS011;55463;52.324;5.122;2023-06-26T12:58:02;6.57;;;1.77;;
67274;SDS011;55463;52.324;5.122;2023-06-26T13:00:28;3.70;;;1.80;;
67274;SDS011;55463;52.324;5.122;2023-06-26T13:02:53;6.07;;;1.63;;
67274;SDS011;55463;52.324;5.122;2023-06-26T13:05:18;3.35;;;1.50;;
67274;SDS011;55463;52.324;5.122;2023-06-26T13:07:44;5.15;;;1.63;;
67274;SDS011;55463;52.324;5.122;2023-06-26T13:10:09;7.13;;;1.60;;
67274;SDS011;55463;52.324;5.122;2023-06-26T13:12:35;4.00;;;1.58;;
67274;SDS011;55463;52.324;5.122;2023-06-26T13:15:00;3.70;;;1.40;;
67274;SDS011;55463;52.324;5.122;2023-06-26T13:17:26;2.85;;;1.67;;
67274;SDS011;55463;52.324;5.122;2023-06-26T13:19:51;5.70;;;1.73;;
67274;SDS011;55463;52.324;5.122;2023-06-26T13:22:16;2.65;;;1.52;;
67274;SDS011;55463;52.324;5.122;2023-06-26T13:24:42;3.15;;;1.58;;
67274;SDS011;55463;52.324;5.122;2023-06-26T13:27:07;6.20;;;2.03;;
67274;SDS011;55463;52.324;5.122;2023-06-26T13:29:33;5.38;;;1.85;;
67274;SDS011;55463;52.324;5.122;2023-06-26T13:31:58;4.10;;;1.73;;
67274;SDS011;55463;52.324;5.122;2023-06-26T13:34:24;5.38;;;1.83;;
67274;SDS011;55463;52.324;5.122;2023-06-26T13:36:52;2.67;;;1.55;;
67274;SDS011;55463;52.324;5.122;2023-06-26T13:39:18;6.82;;;1.60;;
67274;SDS011;55463;52.324;5.122;2023-06-26T13:41:44;5.63;;;1.60;;
67274;SDS011;55463;52.324;5.122;2023-06-26T13:44:10;4.35;;;1.50;;
67274;SDS011;55463;52.324;5.122;2023-06-26T13:46:35;5.57;;;1.58;;
67274;SDS011;55463;52.324;5.122;2023-06-26T13:49:01;3.85;;;1.60;;
67274;SDS011;55463;52.324;5.122;2023-06-26T13:51:26;3.70;;;1.60;;
67274;SDS011;55463;52.324;5.122;2023-06-26T13:53:51;2.65;;;1.40;;
67274;SDS011;55463;52.324;5.122;2023-06-26T13:56:17;3.63;;;2.03;;
67274;SDS011;55463;52.324;5.122;2023-06-26T13:58:42;6.63;;;1.63;;
67274;SDS011;55463;52.324;5.122;2023-06-26T14:01:08;4.47;;;1.90;;
67274;SDS011;55463;52.324;5.122;2023-06-26T14:03:33;8.75;;;2.05;;
67274;SDS011;55463;52.324;5.122;2023-06-26T14:05:59;4.97;;;1.70;;
67274;SDS011;55463;52.324;5.122;2023-06-26T14:08:24;3.58;;;1.77;;
67274;SDS011;55463;52.324;5.122;2023-06-26T14:10:50;3.55;;;1.60;;
67274;SDS011;55463;52.324;5.122;2023-06-26T14:13:15;5.43;;;1.60;;
67274;SDS011;55463;52.324;5.122;2023-06-26T14:15:41;7.28;;;1.70;;
67274;SDS011;55463;52.324;5.122;2023-06-26T14:18:07;5.78;;;1.60;;
67274;SDS011;55463;52.324;5.122;2023-06-26T14:20:32;7.20;;;1.80;;
67274;SDS011;55463;52.324;5.122;2023-06-26T14:22:58;2.83;;;1.85;;
67274;SDS011;55463;52.324;5.122;2023-06-26T14:25:23;3.00;;;1.42;;
67274;SDS011;55463;52.324;5.122;2023-06-26T14:27:49;5.50;;;1.80;;
67274;SDS011;55463;52.324;5.122;2023-06-26T14:30:14;4.85;;;1.60;;
67274;SDS011;55463;52.324;5.122;2023-06-26T14:32:40;5.47;;;1.58;;
67274;SDS011;55463;52.324;5.122;2023-06-26T14:35:05;6.05;;;1.83;;
67274;SDS011;55463;52.324;5.122;2023-06-26T14:37:31;5.30;;;1.73;;
67274;SDS011;55463;52.324;5.122;2023-06-26T14:39:57;4.07;;;1.60;;
67274;SDS011;55463;52.324;5.122;2023-06-26T14:42:24;3.33;;;1.55;;
67274;SDS011;55463;52.324;5.122;2023-06-26T14:44:49;3.33;;;1.60;;
67274;SDS011;55463;52.324;5.122;2023-06-26T14:47:18;7.15;;;1.55;;
67274;SDS011;55463;52.324;5.122;2023-06-26T14:49:44;6.88;;;1.67;;
67274;SDS011;55463;52.324;5.122;2023-06-26T14:52:10;2.70;;;1.25;;
67274;SDS011;55463;52.324;5.122;2023-06-26T14:54:35;2.97;;;1.60;;
67274;SDS011;55463;52.324;5.122;2023-06-26T14:57:07;3.90;;;1.77;;
67274;SDS011;55463;52.324;5.122;2023-06-26T14:59:33;4.85;;;1.40;;
67274;SDS011;55463;52.324;5.122;2023-06-26T15:01:58;2.35;;;1.50;;
67274;SDS011;55463;52.324;5.122;2023-06-26T15:04:24;6.75;;;1.70;;
67274;SDS011;55463;52.324;5.122;2023-06-26T15:06:49;3.17;;;1.35;;
67274;SDS011;55463;52.324;5.122;2023-06-26T15:09:15;3.47;;;1.70;;
67274;SDS011;55463;52.324;5.122;2023-06-26T15:11:40;3.33;;;1.60;;
67274;SDS011;55463;52.324;5.122;2023-06-26T15:14:06;2.58;;;1.50;;